PWSweather.com
Personal Weather Stations
Station Observations
PITCARMI1
La Serra, CarmignanoIT 59015

La SerraCarmignanoIT 59015

Lat: 43.804429, Lon: 11.027222

Elevation: 525

Station Type: Davis Vantage Vue

http://www.meteocarmignano.it

High Low Average
Temperature 82.9°F28.3°F 62.4°F16.9°F 72.4°F22.4°F
Dew Point 63.9°F17.7°F 58.1°F14.5°F 61.3°F16.3°F
Winds 9.2 mph WSW14.8 mph WSW Calm Calm 3.0 mph 4.8 mph
Wind Gusts 13.8 mph22.2 mph -- 4.6 mph7.4 mph
Humidity 88% 52% 69%
Pressure 29.92 in1013.20 in 29.83 in1010.20 in -
Precipitation 0.00 in0.00 in - -
Hour Temp Dew Point Humidity Winds Wind Gusts Pressure Precip Precip Rate Daily Precip Total
12:00 AM 66.9°F19.4°C 60.1°F15.6°C 79% Calm Calm 1.2 mph1.9 kmh 29.91 in1012.9 mb - 0.00 in0.0 mm 0.00 in0.0 mm
12:30 AM 66.4°F19.1°C 59.7°F15.4°C 79% Calm Calm -- 29.91 in1012.9 mb - 0.00 in0.0 mm 0.00 in0.0 mm
01:00 AM 65.5°F18.6°C 59.1°F15.1°C 80% Calm Calm 1.2 mph1.9 kmh 29.91 in1012.9 mb - 0.00 in0.0 mm 0.00 in0.0 mm
01:30 AM 64.5°F18.1°C 58.9°F14.9°C 82% Calm Calm -- 29.90 in1012.5 mb - 0.00 in0.0 mm 0.00 in0.0 mm
02:00 AM 64.4°F18.0°C 59.1°F15.1°C 83% Calm Calm -- 29.90 in1012.5 mb - 0.00 in0.0 mm 0.00 in0.0 mm
02:30 AM 65.3°F18.5°C 60.0°F15.6°C 83% Calm Calm 1.2 mph1.9 kmh 29.90 in1012.5 mb - 0.00 in0.0 mm 0.00 in0.0 mm
03:00 AM 65.0°F18.3°C 59.4°F15.2°C 82% 2.3 mph E3.7 kmh E 3.5 mph5.6 kmh 29.90 in1012.5 mb - 0.00 in0.0 mm 0.00 in0.0 mm
03:30 AM 63.4°F17.4°C 58.8°F14.9°C 85% Calm Calm -- 29.90 in1012.5 mb - 0.00 in0.0 mm 0.00 in0.0 mm
04:00 AM 63.0°F17.2°C 59.4°F15.2°C 88% Calm Calm 1.2 mph1.9 kmh 29.89 in1012.2 mb - 0.00 in0.0 mm 0.00 in0.0 mm
04:30 AM 63.4°F17.4°C 59.1°F15.1°C 86% Calm Calm 1.2 mph1.9 kmh 29.89 in1012.2 mb - 0.00 in0.0 mm 0.00 in0.0 mm
05:00 AM 62.7°F17.1°C 58.5°F14.7°C 86% Calm Calm -- 29.89 in1012.2 mb - 0.00 in0.0 mm 0.00 in0.0 mm
05:30 AM 62.7°F17.1°C 58.8°F14.9°C 87% Calm Calm -- 29.89 in1012.2 mb - 0.00 in0.0 mm 0.00 in0.0 mm
06:00 AM 62.4°F16.9°C 58.1°F14.5°C 86% Calm Calm -- 29.89 in1012.2 mb - 0.00 in0.0 mm 0.00 in0.0 mm
06:30 AM 63.0°F17.2°C 58.7°F14.8°C 86% Calm Calm 1.2 mph1.9 kmh 29.89 in1012.2 mb - 0.00 in0.0 mm 0.00 in0.0 mm
07:00 AM 63.8°F17.7°C 59.2°F15.1°C 85% Calm Calm -- 29.90 in1012.5 mb - 0.00 in0.0 mm 0.00 in0.0 mm
07:30 AM 67.9°F19.9°C 61.5°F16.4°C 80% Calm Calm -- 29.91 in1012.9 mb - 0.00 in0.0 mm 0.00 in0.0 mm
08:00 AM 69.6°F20.9°C 60.5°F15.8°C 73% Calm Calm 1.2 mph1.9 kmh 29.91 in1012.9 mb - 0.00 in0.0 mm 0.00 in0.0 mm
08:30 AM 70.3°F21.3°C 60.5°F15.8°C 71% 1.2 mph E1.9 kmh E 1.2 mph1.9 kmh 29.91 in1012.9 mb - 0.00 in0.0 mm 0.00 in0.0 mm
09:00 AM 71.5°F21.9°C 61.2°F16.2°C 70% 1.2 mph E1.9 kmh E 2.3 mph3.7 kmh 29.91 in1012.9 mb - 0.00 in0.0 mm 0.00 in0.0 mm
09:30 AM 74.7°F23.7°C 62.6°F17.0°C 66% Calm Calm 1.2 mph1.9 kmh 29.92 in1013.2 mb - 0.00 in0.0 mm 0.00 in0.0 mm
10:00 AM 77.5°F25.3°C 63.9°F17.7°C 63% Calm Calm 2.3 mph3.7 kmh 29.91 in1012.9 mb - 0.00 in0.0 mm 0.00 in0.0 mm
10:30 AM 76.8°F24.9°C 63.7°F17.6°C 64% Calm Calm 2.3 mph3.7 kmh 29.91 in1012.9 mb - 0.00 in0.0 mm 0.00 in0.0 mm
11:00 AM 77.8°F25.4°C 63.3°F17.4°C 61% 1.2 mph WSW1.9 kmh WSW 3.5 mph5.6 kmh 29.91 in1012.9 mb - 0.00 in0.0 mm 0.00 in0.0 mm
11:30 AM 79.7°F26.5°C 62.6°F17.0°C 56% 9.2 mph WSW14.8 kmh WSW 10.4 mph16.7 kmh 29.90 in1012.5 mb - 0.00 in0.0 mm 0.00 in0.0 mm
12:00 PM 77.8°F25.4°C 62.3°F16.8°C 59% 4.6 mph WSW7.4 kmh WSW 6.9 mph11.1 kmh 29.90 in1012.5 mb - 0.00 in0.0 mm 0.00 in0.0 mm
12:30 PM 79.0°F26.1°C 62.5°F16.9°C 57% 5.8 mph WSW9.3 kmh WSW 6.9 mph11.1 kmh 29.89 in1012.2 mb - 0.00 in0.0 mm 0.00 in0.0 mm
01:00 PM 79.9°F26.6°C 62.3°F16.8°C 55% 3.5 mph NW5.6 kmh NW 3.5 mph5.6 kmh 29.87 in1011.5 mb - 0.00 in0.0 mm 0.00 in0.0 mm
01:30 PM 80.7°F27.1°C 63.1°F17.3°C 55% 5.8 mph WSW9.3 kmh WSW 9.2 mph14.8 kmh 29.88 in1011.9 mb - 0.00 in0.0 mm 0.00 in0.0 mm
02:00 PM 80.6°F27.0°C 63.5°F17.5°C 56% 4.6 mph SW7.4 kmh SW 9.2 mph14.8 kmh 29.87 in1011.5 mb - 0.00 in0.0 mm 0.00 in0.0 mm
02:30 PM 82.5°F28.1°C 63.1°F17.3°C 52% 5.8 mph WSW9.3 kmh WSW 9.2 mph14.8 kmh 29.86 in1011.2 mb - 0.00 in0.0 mm 0.00 in0.0 mm
03:00 PM 82.1°F27.8°C 62.7°F17.1°C 52% 6.9 mph WSW11.1 kmh WSW 10.4 mph16.7 kmh 29.85 in1010.8 mb - 0.00 in0.0 mm 0.00 in0.0 mm
03:30 PM 82.9°F28.3°C 63.4°F17.4°C 52% 8.1 mph WSW13.0 kmh WSW 8.1 mph13.0 kmh 29.84 in1010.5 mb - 0.00 in0.0 mm 0.00 in0.0 mm
04:00 PM 82.4°F28.0°C 63.6°F17.6°C 53% 3.5 mph WSW5.6 kmh WSW 4.6 mph7.4 kmh 29.83 in1010.2 mb - 0.00 in0.0 mm 0.00 in0.0 mm
04:30 PM 80.7°F27.1°C 63.0°F17.2°C 55% 9.2 mph W14.8 kmh W 13.8 mph22.2 kmh 29.83 in1010.2 mb - 0.00 in0.0 mm 0.00 in0.0 mm
05:00 PM 79.1°F26.2°C 63.5°F17.5°C 59% 4.6 mph WSW7.4 kmh WSW 6.9 mph11.1 kmh 29.84 in1010.5 mb - 0.00 in0.0 mm 0.00 in0.0 mm
05:30 PM 77.8°F25.4°C 63.3°F17.4°C 61% 5.8 mph WSW9.3 kmh WSW 6.9 mph11.1 kmh 29.84 in1010.5 mb - 0.00 in0.0 mm 0.00 in0.0 mm
06:00 PM 77.1°F25.1°C 62.1°F16.7°C 60% 9.2 mph WSW14.8 kmh WSW 12.7 mph20.4 kmh 29.84 in1010.5 mb - 0.00 in0.0 mm 0.00 in0.0 mm
06:30 PM 76.4°F24.7°C 60.0°F15.6°C 57% 5.8 mph SW9.3 kmh SW 8.1 mph13.0 kmh 29.85 in1010.8 mb - 0.00 in0.0 mm 0.00 in0.0 mm
07:00 PM 75.2°F24.0°C 59.4°F15.2°C 58% 2.3 mph WSW3.7 kmh WSW 3.5 mph5.6 kmh 29.85 in1010.8 mb - 0.00 in0.0 mm 0.00 in0.0 mm
07:30 PM 74.2°F23.4°C 61.2°F16.2°C 64% 3.5 mph WSW5.6 kmh WSW 4.6 mph7.4 kmh 29.86 in1011.2 mb - 0.00 in0.0 mm 0.00 in0.0 mm
08:00 PM 74.4°F23.6°C 61.0°F16.1°C 63% 1.2 mph SW1.9 kmh SW 3.5 mph5.6 kmh 29.87 in1011.5 mb - 0.00 in0.0 mm 0.00 in0.0 mm
08:30 PM 73.7°F23.2°C 61.2°F16.2°C 65% 3.5 mph WSW5.6 kmh WSW 4.6 mph7.4 kmh 29.88 in1011.9 mb - 0.00 in0.0 mm 0.00 in0.0 mm
09:00 PM 72.9°F22.7°C 62.1°F16.7°C 69% 5.8 mph WSW9.3 kmh WSW 8.1 mph13.0 kmh 29.88 in1011.9 mb - 0.00 in0.0 mm 0.00 in0.0 mm
09:30 PM 72.1°F22.3°C 62.2°F16.8°C 71% 6.9 mph WSW11.1 kmh WSW 10.4 mph16.7 kmh 29.88 in1011.9 mb - 0.00 in0.0 mm 0.00 in0.0 mm
10:00 PM 71.7°F22.1°C 62.2°F16.8°C 72% 8.1 mph SW13.0 kmh SW 11.5 mph18.5 kmh 29.88 in1011.9 mb - 0.00 in0.0 mm 0.00 in0.0 mm
10:30 PM 71.4°F21.9°C 62.3°F16.8°C 73% 4.6 mph WSW7.4 kmh WSW 9.2 mph14.8 kmh 29.88 in1011.9 mb - 0.00 in0.0 mm 0.00 in0.0 mm
11:00 PM 71.1°F21.7°C 62.8°F17.1°C 75% 6.9 mph WSW11.1 kmh WSW 8.1 mph13.0 kmh 29.88 in1011.9 mb - 0.00 in0.0 mm 0.00 in0.0 mm
11:30 PM 70.9°F21.6°C 63.0°F17.2°C 76% 3.5 mph WSW5.6 kmh WSW 4.6 mph7.4 kmh 29.89 in1012.2 mb - 0.00 in0.0 mm 0.00 in0.0 mm